sensor_id;sensor_type;location;lat;lon;timestamp;temperature;humidity
63648;DHT22;49792;48.744;9.176;2022-07-21T00:01:27;24.70;62.60
63648;DHT22;49792;48.744;9.176;2022-07-21T00:03:52;24.50;63.10
63648;DHT22;49792;48.744;9.176;2022-07-21T00:06:18;23.90;65.40
63648;DHT22;49792;48.744;9.176;2022-07-21T00:08:43;23.80;65.90
63648;DHT22;49792;48.744;9.176;2022-07-21T00:11:09;24.10;65.60
63648;DHT22;49792;48.744;9.176;2022-07-21T00:13:34;24.30;65.10
63648;DHT22;49792;48.744;9.176;2022-07-21T00:16:00;24.40;64.40
63648;DHT22;49792;48.744;9.176;2022-07-21T00:18:25;24.20;64.60
63648;DHT22;49792;48.744;9.176;2022-07-21T00:20:54;24.20;64.80
63648;DHT22;49792;48.744;9.176;2022-07-21T00:23:21;24.00;66.20
63648;DHT22;49792;48.744;9.176;2022-07-21T00:25:46;24.20;65.60
63648;DHT22;49792;48.744;9.176;2022-07-21T00:28:12;24.20;64.60
63648;DHT22;49792;48.744;9.176;2022-07-21T00:30:37;24.20;65.20
63648;DHT22;49792;48.744;9.176;2022-07-21T00:33:03;24.30;65.00
63648;DHT22;49792;48.744;9.176;2022-07-21T00:35:28;24.30;64.40
63648;DHT22;49792;48.744;9.176;2022-07-21T00:37:54;24.40;63.90
63648;DHT22;49792;48.744;9.176;2022-07-21T00:40:20;24.60;63.10
63648;DHT22;49792;48.744;9.176;2022-07-21T00:42:46;24.50;63.30
63648;DHT22;49792;48.744;9.176;2022-07-21T00:45:11;24.40;63.90
63648;DHT22;49792;48.744;9.176;2022-07-21T00:47:37;24.40;64.00
63648;DHT22;49792;48.744;9.176;2022-07-21T00:50:05;23.80;65.50
63648;DHT22;49792;48.744;9.176;2022-07-21T00:52:31;23.70;66.20
63648;DHT22;49792;48.744;9.176;2022-07-21T00:54:56;24.10;65.50
63648;DHT22;49792;48.744;9.176;2022-07-21T00:57:22;24.30;65.60
63648;DHT22;49792;48.744;9.176;2022-07-21T00:59:48;24.50;64.00
63648;DHT22;49792;48.744;9.176;2022-07-21T01:02:13;24.30;64.60
63648;DHT22;49792;48.744;9.176;2022-07-21T01:04:39;24.10;65.40
63648;DHT22;49792;48.744;9.176;2022-07-21T01:07:05;24.30;64.80
63648;DHT22;49792;48.744;9.176;2022-07-21T01:09:34;24.00;65.50
63648;DHT22;49792;48.744;9.176;2022-07-21T01:12:00;23.60;66.90
63648;DHT22;49792;48.744;9.176;2022-07-21T01:14:26;23.70;66.90
63648;DHT22;49792;48.744;9.176;2022-07-21T01:16:51;23.80;66.80
63648;DHT22;49792;48.744;9.176;2022-07-21T01:19:17;23.70;66.60
63648;DHT22;49792;48.744;9.176;2022-07-21T01:21:44;23.80;66.50
63648;DHT22;49792;48.744;9.176;2022-07-21T01:24:10;24.00;65.30
63648;DHT22;49792;48.744;9.176;2022-07-21T01:26:42;24.10;65.00
63648;DHT22;49792;48.744;9.176;2022-07-21T01:29:08;24.10;65.60
63648;DHT22;49792;48.744;9.176;2022-07-21T01:31:38;24.10;65.20
63648;DHT22;49792;48.744;9.176;2022-07-21T01:34:04;23.90;65.70
63648;DHT22;49792;48.744;9.176;2022-07-21T01:36:29;24.00;65.00
63648;DHT22;49792;48.744;9.176;2022-07-21T01:38:55;24.10;64.60
63648;DHT22;49792;48.744;9.176;2022-07-21T01:41:39;24.20;63.90
63648;DHT22;49792;48.744;9.176;2022-07-21T01:44:06;24.40;63.50
63648;DHT22;49792;48.744;9.176;2022-07-21T01:46:32;23.80;64.30
63648;DHT22;49792;48.744;9.176;2022-07-21T01:48:58;23.90;64.40
63648;DHT22;49792;48.744;9.176;2022-07-21T01:51:24;24.10;65.00
63648;DHT22;49792;48.744;9.176;2022-07-21T01:53:49;24.20;63.70
63648;DHT22;49792;48.744;9.176;2022-07-21T01:56:15;24.20;63.50
63648;DHT22;49792;48.744;9.176;2022-07-21T01:58:43;24.30;63.40
63648;DHT22;49792;48.744;9.176;2022-07-21T02:01:08;24.20;63.20
63648;DHT22;49792;48.744;9.176;2022-07-21T02:03:34;24.20;64.10
63648;DHT22;49792;48.744;9.176;2022-07-21T02:06:00;24.10;63.60
63648;DHT22;49792;48.744;9.176;2022-07-21T02:08:26;24.10;64.00
63648;DHT22;49792;48.744;9.176;2022-07-21T02:10:52;23.60;65.10
63648;DHT22;49792;48.744;9.176;2022-07-21T02:13:17;23.70;64.90
63648;DHT22;49792;48.744;9.176;2022-07-21T02:15:43;23.70;64.50
63648;DHT22;49792;48.744;9.176;2022-07-21T02:18:08;23.80;65.50
63648;DHT22;49792;48.744;9.176;2022-07-21T02:20:34;23.70;65.30
63648;DHT22;49792;48.744;9.176;2022-07-21T02:23:00;23.80;65.00
63648;DHT22;49792;48.744;9.176;2022-07-21T02:25:25;23.70;65.50
63648;DHT22;49792;48.744;9.176;2022-07-21T02:27:51;23.60;64.90
63648;DHT22;49792;48.744;9.176;2022-07-21T02:30:17;23.30;66.00
63648;DHT22;49792;48.744;9.176;2022-07-21T02:32:43;23.30;66.90
63648;DHT22;49792;48.744;9.176;2022-07-21T02:35:08;23.90;65.10
63648;DHT22;49792;48.744;9.176;2022-07-21T02:37:34;24.10;64.70
63648;DHT22;49792;48.744;9.176;2022-07-21T02:39:59;24.20;63.50
63648;DHT22;49792;48.744;9.176;2022-07-21T02:42:25;24.30;62.90
63648;DHT22;49792;48.744;9.176;2022-07-21T02:44:50;24.30;62.40
63648;DHT22;49792;48.744;9.176;2022-07-21T02:47:16;24.10;63.60
63648;DHT22;49792;48.744;9.176;2022-07-21T02:49:41;24.30;63.70
63648;DHT22;49792;48.744;9.176;2022-07-21T02:52:07;23.80;64.30
63648;DHT22;49792;48.744;9.176;2022-07-21T02:54:33;24.00;64.40
63648;DHT22;49792;48.744;9.176;2022-07-21T02:56:58;24.10;63.40
63648;DHT22;49792;48.744;9.176;2022-07-21T02:59:23;24.10;63.50
63648;DHT22;49792;48.744;9.176;2022-07-21T03:01:49;24.10;63.60
63648;DHT22;49792;48.744;9.176;2022-07-21T03:04:14;24.10;63.40
63648;DHT22;49792;48.744;9.176;2022-07-21T03:06:40;24.10;63.80
63648;DHT22;49792;48.744;9.176;2022-07-21T03:09:07;23.90;64.10
63648;DHT22;49792;48.744;9.176;2022-07-21T03:11:33;23.80;64.70
63648;DHT22;49792;48.744;9.176;2022-07-21T03:13:58;23.80;65.30
63648;DHT22;49792;48.744;9.176;2022-07-21T03:16:24;23.80;64.40
63648;DHT22;49792;48.744;9.176;2022-07-21T03:18:50;23.90;64.50
63648;DHT22;49792;48.744;9.176;2022-07-21T03:21:15;24.10;63.50
63648;DHT22;49792;48.744;9.176;2022-07-21T03:23:41;24.20;63.20
63648;DHT22;49792;48.744;9.176;2022-07-21T03:26:13;24.10;63.30
63648;DHT22;49792;48.744;9.176;2022-07-21T03:28:40;24.20;62.80
63648;DHT22;49792;48.744;9.176;2022-07-21T03:31:06;24.20;62.80
63648;DHT22;49792;48.744;9.176;2022-07-21T03:33:31;24.20;63.40
63648;DHT22;49792;48.744;9.176;2022-07-21T03:35:57;23.90;63.60
63648;DHT22;49792;48.744;9.176;2022-07-21T03:38:25;23.90;63.70
63648;DHT22;49792;48.744;9.176;2022-07-21T03:40:51;23.80;64.30
63648;DHT22;49792;48.744;9.176;2022-07-21T03:43:17;23.90;63.90
63648;DHT22;49792;48.744;9.176;2022-07-21T03:45:42;24.00;63.70
63648;DHT22;49792;48.744;9.176;2022-07-21T03:48:08;23.70;64.70
63648;DHT22;49792;48.744;9.176;2022-07-21T03:50:34;23.80;64.10
63648;DHT22;49792;48.744;9.176;2022-07-21T03:53:00;23.90;63.70
63648;DHT22;49792;48.744;9.176;2022-07-21T03:55:26;23.90;63.50
63648;DHT22;49792;48.744;9.176;2022-07-21T03:57:52;23.80;63.50
63648;DHT22;49792;48.744;9.176;2022-07-21T04:00:19;23.70;64.30
63648;DHT22;49792;48.744;9.176;2022-07-21T04:02:45;23.70;64.40
63648;DHT22;49792;48.744;9.176;2022-07-21T04:05:11;23.60;64.20
63648;DHT22;49792;48.744;9.176;2022-07-21T04:07:40;23.70;64.50
63648;DHT22;49792;48.744;9.176;2022-07-21T04:10:07;23.50;64.40
63648;DHT22;49792;48.744;9.176;2022-07-21T04:12:32;23.70;64.50
63648;DHT22;49792;48.744;9.176;2022-07-21T04:14:58;23.40;65.20
63648;DHT22;49792;48.744;9.176;2022-07-21T04:17:23;23.40;65.50
63648;DHT22;49792;48.744;9.176;2022-07-21T04:19:49;23.30;65.50
63648;DHT22;49792;48.744;9.176;2022-07-21T04:22:14;23.00;66.60
63648;DHT22;49792;48.744;9.176;2022-07-21T04:24:40;23.30;66.60
63648;DHT22;49792;48.744;9.176;2022-07-21T04:27:05;23.40;65.60
63648;DHT22;49792;48.744;9.176;2022-07-21T04:29:31;23.40;65.20
63648;DHT22;49792;48.744;9.176;2022-07-21T04:31:57;23.20;66.30
63648;DHT22;49792;48.744;9.176;2022-07-21T04:34:22;23.30;66.20
63648;DHT22;49792;48.744;9.176;2022-07-21T04:36:48;23.60;65.20
63648;DHT22;49792;48.744;9.176;2022-07-21T04:39:13;23.80;64.50
63648;DHT22;49792;48.744;9.176;2022-07-21T04:41:39;24.00;64.30
63648;DHT22;49792;48.744;9.176;2022-07-21T04:44:04;24.00;64.40
63648;DHT22;49792;48.744;9.176;2022-07-21T04:46:30;24.20;63.80
63648;DHT22;49792;48.744;9.176;2022-07-21T04:48:55;24.30;63.20
63648;DHT22;49792;48.744;9.176;2022-07-21T04:51:21;24.40;63.00
63648;DHT22;49792;48.744;9.176;2022-07-21T04:53:46;24.40;62.30
63648;DHT22;49792;48.744;9.176;2022-07-21T04:56:12;24.40;61.90
63648;DHT22;49792;48.744;9.176;2022-07-21T04:58:37;24.40;62.10
63648;DHT22;49792;48.744;9.176;2022-07-21T05:01:02;24.30;62.00
63648;DHT22;49792;48.744;9.176;2022-07-21T05:03:28;24.30;62.00
63648;DHT22;49792;48.744;9.176;2022-07-21T05:05:53;24.30;61.70
63648;DHT22;49792;48.744;9.176;2022-07-21T05:08:19;24.40;61.80
63648;DHT22;49792;48.744;9.176;2022-07-21T05:10:44;24.40;62.20
63648;DHT22;49792;48.744;9.176;2022-07-21T05:13:10;24.40;61.90
63648;DHT22;49792;48.744;9.176;2022-07-21T05:15:35;24.40;62.00
63648;DHT22;49792;48.744;9.176;2022-07-21T05:18:01;24.40;62.20
63648;DHT22;49792;48.744;9.176;2022-07-21T05:20:26;24.40;61.90
63648;DHT22;49792;48.744;9.176;2022-07-21T05:22:52;24.60;62.50
63648;DHT22;49792;48.744;9.176;2022-07-21T05:25:17;24.70;61.90
63648;DHT22;49792;48.744;9.176;2022-07-21T05:27:43;24.80;62.40
63648;DHT22;49792;48.744;9.176;2022-07-21T05:30:09;24.80;62.10
63648;DHT22;49792;48.744;9.176;2022-07-21T05:32:35;24.90;62.20
63648;DHT22;49792;48.744;9.176;2022-07-21T05:35:00;24.90;62.30
63648;DHT22;49792;48.744;9.176;2022-07-21T05:37:26;24.90;62.40
63648;DHT22;49792;48.744;9.176;2022-07-21T05:39:52;24.90;62.10
63648;DHT22;49792;48.744;9.176;2022-07-21T05:42:18;25.00;62.30
63648;DHT22;49792;48.744;9.176;2022-07-21T05:44:43;25.00;61.80
63648;DHT22;49792;48.744;9.176;2022-07-21T05:47:09;25.00;61.90
63648;DHT22;49792;48.744;9.176;2022-07-21T05:49:34;25.00;62.00
63648;DHT22;49792;48.744;9.176;2022-07-21T05:52:00;25.00;61.80
63648;DHT22;49792;48.744;9.176;2022-07-21T05:54:25;25.00;61.80
63648;DHT22;49792;48.744;9.176;2022-07-21T05:56:51;25.10;61.50
63648;DHT22;49792;48.744;9.176;2022-07-21T05:59:17;25.10;61.40
63648;DHT22;49792;48.744;9.176;2022-07-21T06:01:43;25.10;61.40
63648;DHT22;49792;48.744;9.176;2022-07-21T06:04:08;25.20;61.20
63648;DHT22;49792;48.744;9.176;2022-07-21T06:06:34;24.90;62.00
63648;DHT22;49792;48.744;9.176;2022-07-21T06:08:59;24.30;64.30
63648;DHT22;49792;48.744;9.176;2022-07-21T06:11:25;23.90;65.00
63648;DHT22;49792;48.744;9.176;2022-07-21T06:13:50;24.00;65.50
63648;DHT22;49792;48.744;9.176;2022-07-21T06:16:16;23.90;65.40
63648;DHT22;49792;48.744;9.176;2022-07-21T06:18:41;24.00;66.10
63648;DHT22;49792;48.744;9.176;2022-07-21T06:21:07;24.20;65.10
63648;DHT22;49792;48.744;9.176;2022-07-21T06:23:32;24.00;64.50
63648;DHT22;49792;48.744;9.176;2022-07-21T06:25:58;23.80;65.10
63648;DHT22;49792;48.744;9.176;2022-07-21T06:28:23;24.00;64.50
63648;DHT22;49792;48.744;9.176;2022-07-21T06:30:49;23.90;65.20
63648;DHT22;49792;48.744;9.176;2022-07-21T06:33:15;23.90;64.70
63648;DHT22;49792;48.744;9.176;2022-07-21T06:35:40;23.90;63.20
63648;DHT22;49792;48.744;9.176;2022-07-21T06:38:06;23.80;63.00
63648;DHT22;49792;48.744;9.176;2022-07-21T06:40:32;23.90;64.30
63648;DHT22;49792;48.744;9.176;2022-07-21T06:42:57;23.90;62.30
63648;DHT22;49792;48.744;9.176;2022-07-21T06:45:23;23.80;62.10
63648;DHT22;49792;48.744;9.176;2022-07-21T06:47:48;23.80;62.20
63648;DHT22;49792;48.744;9.176;2022-07-21T06:50:14;23.90;62.10
63648;DHT22;49792;48.744;9.176;2022-07-21T06:52:40;24.00;62.80
63648;DHT22;49792;48.744;9.176;2022-07-21T06:55:06;24.00;63.20
63648;DHT22;49792;48.744;9.176;2022-07-21T06:57:32;24.00;61.90
63648;DHT22;49792;48.744;9.176;2022-07-21T06:59:58;23.90;61.90
63648;DHT22;49792;48.744;9.176;2022-07-21T07:02:24;23.90;61.90
63648;DHT22;49792;48.744;9.176;2022-07-21T07:04:49;24.10;62.20
63648;DHT22;49792;48.744;9.176;2022-07-21T07:07:15;24.10;61.10
63648;DHT22;49792;48.744;9.176;2022-07-21T07:09:40;24.00;60.50
63648;DHT22;49792;48.744;9.176;2022-07-21T07:12:06;24.10;60.00
63648;DHT22;49792;48.744;9.176;2022-07-21T07:14:34;24.10;60.80
63648;DHT22;49792;48.744;9.176;2022-07-21T07:17:00;24.20;61.60
63648;DHT22;49792;48.744;9.176;2022-07-21T07:19:26;24.50;60.10
63648;DHT22;49792;48.744;9.176;2022-07-21T07:21:52;24.50;59.90
63648;DHT22;49792;48.744;9.176;2022-07-21T07:24:17;24.50;58.90
63648;DHT22;49792;48.744;9.176;2022-07-21T07:26:43;24.50;58.70
63648;DHT22;49792;48.744;9.176;2022-07-21T07:29:09;24.50;58.30
63648;DHT22;49792;48.744;9.176;2022-07-21T07:31:34;24.30;58.70
63648;DHT22;49792;48.744;9.176;2022-07-21T07:34:00;24.40;58.00
63648;DHT22;49792;48.744;9.176;2022-07-21T07:36:26;24.50;58.50
63648;DHT22;49792;48.744;9.176;2022-07-21T07:38:52;24.50;59.50
63648;DHT22;49792;48.744;9.176;2022-07-21T07:41:21;24.40;58.80
63648;DHT22;49792;48.744;9.176;2022-07-21T07:43:47;24.60;59.10
63648;DHT22;49792;48.744;9.176;2022-07-21T07:46:12;24.60;59.70
63648;DHT22;49792;48.744;9.176;2022-07-21T07:48:39;24.10;58.90
63648;DHT22;49792;48.744;9.176;2022-07-21T07:51:05;23.70;59.40
63648;DHT22;49792;48.744;9.176;2022-07-21T07:53:31;23.20;59.40
63648;DHT22;49792;48.744;9.176;2022-07-21T07:55:57;23.20;59.80
63648;DHT22;49792;48.744;9.176;2022-07-21T07:58:22;23.30;59.80
63648;DHT22;49792;48.744;9.176;2022-07-21T08:00:48;23.30;62.70
63648;DHT22;49792;48.744;9.176;2022-07-21T08:03:13;23.50;61.50
63648;DHT22;49792;48.744;9.176;2022-07-21T08:05:39;23.80;60.70
63648;DHT22;49792;48.744;9.176;2022-07-21T08:08:04;24.30;59.80
63648;DHT22;49792;48.744;9.176;2022-07-21T08:10:30;24.50;59.40
63648;DHT22;49792;48.744;9.176;2022-07-21T08:12:56;24.60;59.00
63648;DHT22;49792;48.744;9.176;2022-07-21T08:15:21;24.70;58.80
63648;DHT22;49792;48.744;9.176;2022-07-21T08:17:47;24.70;58.50
63648;DHT22;49792;48.744;9.176;2022-07-21T08:20:12;24.70;58.50
63648;DHT22;49792;48.744;9.176;2022-07-21T08:22:38;24.70;57.70
63648;DHT22;49792;48.744;9.176;2022-07-21T08:25:04;24.60;57.70
63648;DHT22;49792;48.744;9.176;2022-07-21T08:27:29;24.70;57.70
63648;DHT22;49792;48.744;9.176;2022-07-21T08:29:55;24.70;57.80
63648;DHT22;49792;48.744;9.176;2022-07-21T08:32:20;24.70;57.90
63648;DHT22;49792;48.744;9.176;2022-07-21T08:34:46;24.80;58.00
63648;DHT22;49792;48.744;9.176;2022-07-21T08:37:11;24.90;57.40
63648;DHT22;49792;48.744;9.176;2022-07-21T08:39:37;24.80;57.50
63648;DHT22;49792;48.744;9.176;2022-07-21T08:42:04;24.80;57.00
63648;DHT22;49792;48.744;9.176;2022-07-21T08:44:30;24.80;56.70
63648;DHT22;49792;48.744;9.176;2022-07-21T08:46:57;24.80;57.10
63648;DHT22;49792;48.744;9.176;2022-07-21T08:49:23;24.80;56.90
63648;DHT22;49792;48.744;9.176;2022-07-21T08:51:49;24.80;56.90
63648;DHT22;49792;48.744;9.176;2022-07-21T08:54:15;24.90;56.10
63648;DHT22;49792;48.744;9.176;2022-07-21T08:56:40;24.90;56.60
63648;DHT22;49792;48.744;9.176;2022-07-21T08:59:06;24.90;56.80
63648;DHT22;49792;48.744;9.176;2022-07-21T09:01:31;24.90;55.90
63648;DHT22;49792;48.744;9.176;2022-07-21T09:04:16;24.90;55.50
63648;DHT22;49792;48.744;9.176;2022-07-21T09:06:56;24.90;55.80
63648;DHT22;49792;48.744;9.176;2022-07-21T09:09:22;24.90;55.70
63648;DHT22;49792;48.744;9.176;2022-07-21T09:11:48;24.90;55.00
63648;DHT22;49792;48.744;9.176;2022-07-21T09:14:16;25.00;55.00
63648;DHT22;49792;48.744;9.176;2022-07-21T09:19:20;24.90;54.30
63648;DHT22;49792;48.744;9.176;2022-07-21T09:21:46;24.90;54.10
63648;DHT22;49792;48.744;9.176;2022-07-21T09:32:20;24.90;53.70
63648;DHT22;49792;48.744;9.176;2022-07-21T09:34:48;24.90;54.30
63648;DHT22;49792;48.744;9.176;2022-07-21T09:37:13;25.00;54.90
63648;DHT22;49792;48.744;9.176;2022-07-21T09:39:40;25.00;54.60
63648;DHT22;49792;48.744;9.176;2022-07-21T09:42:51;25.10;54.40
63648;DHT22;49792;48.744;9.176;2022-07-21T09:47:21;25.00;53.50
63648;DHT22;49792;48.744;9.176;2022-07-21T09:49:47;25.00;53.10
63648;DHT22;49792;48.744;9.176;2022-07-21T09:54:44;25.00;54.40
63648;DHT22;49792;48.744;9.176;2022-07-21T09:57:10;25.00;53.30
63648;DHT22;49792;48.744;9.176;2022-07-21T09:59:35;25.00;52.70
63648;DHT22;49792;48.744;9.176;2022-07-21T10:02:01;25.00;52.60
63648;DHT22;49792;48.744;9.176;2022-07-21T10:04:27;25.10;52.50
63648;DHT22;49792;48.744;9.176;2022-07-21T10:06:53;25.10;53.00
63648;DHT22;49792;48.744;9.176;2022-07-21T10:09:19;25.10;53.30
63648;DHT22;49792;48.744;9.176;2022-07-21T10:11:45;25.10;53.10
63648;DHT22;49792;48.744;9.176;2022-07-21T10:14:11;25.30;54.40
63648;DHT22;49792;48.744;9.176;2022-07-21T10:16:37;25.30;54.30
63648;DHT22;49792;48.744;9.176;2022-07-21T10:19:18;25.20;52.60
63648;DHT22;49792;48.744;9.176;2022-07-21T10:24:13;25.30;53.10
63648;DHT22;49792;48.744;9.176;2022-07-21T10:26:39;25.30;53.60
63648;DHT22;49792;48.744;9.176;2022-07-21T10:32:11;25.20;51.30
63648;DHT22;49792;48.744;9.176;2022-07-21T10:34:38;25.20;52.40
63648;DHT22;49792;48.744;9.176;2022-07-21T10:37:04;25.20;52.70
63648;DHT22;49792;48.744;9.176;2022-07-21T10:39:30;25.20;51.40
63648;DHT22;49792;48.744;9.176;2022-07-21T10:41:57;25.20;52.50
63648;DHT22;49792;48.744;9.176;2022-07-21T10:47:02;25.30;51.60
63648;DHT22;49792;48.744;9.176;2022-07-21T10:49:41;25.30;52.30
63648;DHT22;49792;48.744;9.176;2022-07-21T10:52:49;25.30;51.00
63648;DHT22;49792;48.744;9.176;2022-07-21T10:57:43;25.30;50.20
63648;DHT22;49792;48.744;9.176;2022-07-21T11:02:50;25.30;50.80
63648;DHT22;49792;48.744;9.176;2022-07-21T11:05:16;25.30;51.30
63648;DHT22;49792;48.744;9.176;2022-07-21T11:10:26;25.30;51.50
63648;DHT22;49792;48.744;9.176;2022-07-21T11:12:55;25.30;51.20
63648;DHT22;49792;48.744;9.176;2022-07-21T11:18:05;25.30;52.30
63648;DHT22;49792;48.744;9.176;2022-07-21T11:20:31;25.30;52.20
63648;DHT22;49792;48.744;9.176;2022-07-21T11:22:56;25.30;52.00
63648;DHT22;49792;48.744;9.176;2022-07-21T11:25:28;25.30;52.50
63648;DHT22;49792;48.744;9.176;2022-07-21T11:27:54;25.30;51.90
63648;DHT22;49792;48.744;9.176;2022-07-21T11:30:19;25.30;52.00
63648;DHT22;49792;48.744;9.176;2022-07-21T11:32:46;25.30;51.20
63648;DHT22;49792;48.744;9.176;2022-07-21T11:35:12;25.20;50.40
63648;DHT22;49792;48.744;9.176;2022-07-21T11:37:44;25.20;51.10
63648;DHT22;49792;48.744;9.176;2022-07-21T11:40:12;25.20;50.60
63648;DHT22;49792;48.744;9.176;2022-07-21T11:42:38;25.20;52.00
63648;DHT22;49792;48.744;9.176;2022-07-21T11:45:04;25.20;52.50
63648;DHT22;49792;48.744;9.176;2022-07-21T11:47:30;25.30;52.70
63648;DHT22;49792;48.744;9.176;2022-07-21T11:49:57;25.30;52.30
63648;DHT22;49792;48.744;9.176;2022-07-21T11:52:27;25.20;52.30
63648;DHT22;49792;48.744;9.176;2022-07-21T11:54:53;25.30;52.60
63648;DHT22;49792;48.744;9.176;2022-07-21T11:57:20;25.30;52.00
63648;DHT22;49792;48.744;9.176;2022-07-21T11:59:46;25.30;52.30
63648;DHT22;49792;48.744;9.176;2022-07-21T12:04:44;25.30;52.30
63648;DHT22;49792;48.744;9.176;2022-07-21T12:07:14;25.30;52.20
63648;DHT22;49792;48.744;9.176;2022-07-21T12:09:41;25.30;52.00
63648;DHT22;49792;48.744;9.176;2022-07-21T12:12:07;25.20;52.40
63648;DHT22;49792;48.744;9.176;2022-07-21T12:14:43;25.20;52.50
63648;DHT22;49792;48.744;9.176;2022-07-21T12:17:08;25.20;51.90
63648;DHT22;49792;48.744;9.176;2022-07-21T12:19:34;25.20;50.40
63648;DHT22;49792;48.744;9.176;2022-07-21T12:21:59;25.20;52.60
63648;DHT22;49792;48.744;9.176;2022-07-21T12:24:46;25.20;52.30
63648;DHT22;49792;48.744;9.176;2022-07-21T12:27:11;25.20;51.40
63648;DHT22;49792;48.744;9.176;2022-07-21T12:29:37;25.30;52.30
63648;DHT22;49792;48.744;9.176;2022-07-21T12:32:02;25.30;52.20
63648;DHT22;49792;48.744;9.176;2022-07-21T12:34:28;25.30;52.00
63648;DHT22;49792;48.744;9.176;2022-07-21T12:36:53;25.30;51.60
63648;DHT22;49792;48.744;9.176;2022-07-21T12:39:20;25.30;51.60
63648;DHT22;49792;48.744;9.176;2022-07-21T12:42:05;25.30;50.30
63648;DHT22;49792;48.744;9.176;2022-07-21T12:44:31;25.30;49.30
63648;DHT22;49792;48.744;9.176;2022-07-21T12:46:57;25.30;52.30
63648;DHT22;49792;48.744;9.176;2022-07-21T12:52:20;25.20;51.60
63648;DHT22;49792;48.744;9.176;2022-07-21T12:54:46;25.30;51.40
63648;DHT22;49792;48.744;9.176;2022-07-21T12:57:11;25.40;47.70
63648;DHT22;49792;48.744;9.176;2022-07-21T12:59:37;25.40;47.70
63648;DHT22;49792;48.744;9.176;2022-07-21T13:02:03;25.30;46.10
63648;DHT22;49792;48.744;9.176;2022-07-21T13:04:29;25.30;46.40
63648;DHT22;49792;48.744;9.176;2022-07-21T13:06:54;25.20;47.20
63648;DHT22;49792;48.744;9.176;2022-07-21T13:09:20;25.40;47.90
63648;DHT22;49792;48.744;9.176;2022-07-21T13:11:45;25.40;48.10
63648;DHT22;49792;48.744;9.176;2022-07-21T13:14:11;25.40;46.80
63648;DHT22;49792;48.744;9.176;2022-07-21T13:16:37;25.40;46.40
63648;DHT22;49792;48.744;9.176;2022-07-21T13:19:02;25.40;47.20
63648;DHT22;49792;48.744;9.176;2022-07-21T13:21:28;25.40;46.90
63648;DHT22;49792;48.744;9.176;2022-07-21T13:23:53;25.40;47.20
63648;DHT22;49792;48.744;9.176;2022-07-21T13:26:19;25.20;46.90
63648;DHT22;49792;48.744;9.176;2022-07-21T13:28:44;25.30;47.70
63648;DHT22;49792;48.744;9.176;2022-07-21T13:31:10;25.30;47.70
63648;DHT22;49792;48.744;9.176;2022-07-21T13:33:35;25.30;48.10
63648;DHT22;49792;48.744;9.176;2022-07-21T13:36:01;25.40;47.70
63648;DHT22;49792;48.744;9.176;2022-07-21T13:38:27;25.60;47.60
63648;DHT22;49792;48.744;9.176;2022-07-21T13:40:52;25.50;47.40
63648;DHT22;49792;48.744;9.176;2022-07-21T13:43:18;25.40;48.20
63648;DHT22;49792;48.744;9.176;2022-07-21T13:45:43;25.30;47.60
63648;DHT22;49792;48.744;9.176;2022-07-21T13:48:09;25.20;48.10
63648;DHT22;49792;48.744;9.176;2022-07-21T13:50:34;25.20;48.20
63648;DHT22;49792;48.744;9.176;2022-07-21T13:53:00;25.30;49.10
63648;DHT22;49792;48.744;9.176;2022-07-21T13:55:25;25.40;48.60
63648;DHT22;49792;48.744;9.176;2022-07-21T13:57:51;25.40;48.90
63648;DHT22;49792;48.744;9.176;2022-07-21T14:00:17;25.40;49.10
63648;DHT22;49792;48.744;9.176;2022-07-21T14:02:42;25.20;49.20
63648;DHT22;49792;48.744;9.176;2022-07-21T14:05:09;25.20;48.70
63648;DHT22;49792;48.744;9.176;2022-07-21T14:07:34;25.20;49.40
63648;DHT22;49792;48.744;9.176;2022-07-21T14:10:00;25.10;48.30
63648;DHT22;49792;48.744;9.176;2022-07-21T14:12:25;25.20;49.20
63648;DHT22;49792;48.744;9.176;2022-07-21T14:14:52;25.30;46.90
63648;DHT22;49792;48.744;9.176;2022-07-21T14:17:17;25.40;47.80
63648;DHT22;49792;48.744;9.176;2022-07-21T14:19:46;25.40;48.10
63648;DHT22;49792;48.744;9.176;2022-07-21T14:22:15;25.60;47.60
63648;DHT22;49792;48.744;9.176;2022-07-21T14:24:42;25.50;47.40
63648;DHT22;49792;48.744;9.176;2022-07-21T14:27:27;25.40;46.70
63648;DHT22;49792;48.744;9.176;2022-07-21T14:29:52;25.40;46.10
63648;DHT22;49792;48.744;9.176;2022-07-21T14:32:18;25.30;47.60
63648;DHT22;49792;48.744;9.176;2022-07-21T14:34:48;25.40;46.10
63648;DHT22;49792;48.744;9.176;2022-07-21T14:37:13;25.40;46.40
63648;DHT22;49792;48.744;9.176;2022-07-21T14:39:39;25.40;47.00
63648;DHT22;49792;48.744;9.176;2022-07-21T14:42:04;25.40;47.30
63648;DHT22;49792;48.744;9.176;2022-07-21T14:44:30;25.40;47.30
63648;DHT22;49792;48.744;9.176;2022-07-21T14:46:56;25.40;46.80
63648;DHT22;49792;48.744;9.176;2022-07-21T14:49:21;25.30;45.50
63648;DHT22;49792;48.744;9.176;2022-07-21T14:51:47;25.40;45.80
63648;DHT22;49792;48.744;9.176;2022-07-21T14:54:12;25.30;46.30
63648;DHT22;49792;48.744;9.176;2022-07-21T14:56:38;25.40;45.60
63648;DHT22;49792;48.744;9.176;2022-07-21T14:59:03;25.30;45.20
63648;DHT22;49792;48.744;9.176;2022-07-21T15:01:29;25.30;46.70
63648;DHT22;49792;48.744;9.176;2022-07-21T15:03:54;25.30;46.50
63648;DHT22;49792;48.744;9.176;2022-07-21T15:06:20;25.30;47.20
63648;DHT22;49792;48.744;9.176;2022-07-21T15:08:45;25.30;47.20
63648;DHT22;49792;48.744;9.176;2022-07-21T15:11:11;25.20;46.60
63648;DHT22;49792;48.744;9.176;2022-07-21T15:13:36;25.30;46.40
63648;DHT22;49792;48.744;9.176;2022-07-21T15:16:02;25.30;47.30
63648;DHT22;49792;48.744;9.176;2022-07-21T15:18:27;25.30;47.50
63648;DHT22;49792;48.744;9.176;2022-07-21T15:20:53;25.30;47.50
63648;DHT22;49792;48.744;9.176;2022-07-21T15:23:18;25.30;47.00
63648;DHT22;49792;48.744;9.176;2022-07-21T15:25:44;25.30;47.30
63648;DHT22;49792;48.744;9.176;2022-07-21T15:28:09;25.40;48.00
63648;DHT22;49792;48.744;9.176;2022-07-21T15:30:35;25.40;48.00
63648;DHT22;49792;48.744;9.176;2022-07-21T15:33:01;25.40;48.00
63648;DHT22;49792;48.744;9.176;2022-07-21T15:35:26;25.50;47.50
63648;DHT22;49792;48.744;9.176;2022-07-21T15:37:52;25.50;47.10
63648;DHT22;49792;48.744;9.176;2022-07-21T15:40:18;25.50;46.60
63648;DHT22;49792;48.744;9.176;2022-07-21T15:42:44;25.50;46.30
63648;DHT22;49792;48.744;9.176;2022-07-21T15:45:10;25.40;46.00
63648;DHT22;49792;48.744;9.176;2022-07-21T15:47:36;25.40;46.00
63648;DHT22;49792;48.744;9.176;2022-07-21T15:50:01;25.30;46.60
63648;DHT22;49792;48.744;9.176;2022-07-21T15:52:27;25.30;45.70
63648;DHT22;49792;48.744;9.176;2022-07-21T15:54:54;25.30;45.70
63648;DHT22;49792;48.744;9.176;2022-07-21T15:57:19;25.30;46.10
63648;DHT22;49792;48.744;9.176;2022-07-21T15:59:45;25.30;47.50
63648;DHT22;49792;48.744;9.176;2022-07-21T16:02:14;25.30;47.20
63648;DHT22;49792;48.744;9.176;2022-07-21T16:04:40;25.20;47.20